sensor_id;sensor_type;location;lat;lon;timestamp;pressure;altitude;pressure_sealevel;temperature;humidity
22389;BME280;11362;48.102;11.620;2024-02-21T00:01:46;96179.88;;;24.35;34.22
22389;BME280;11362;48.102;11.620;2024-02-21T00:04:12;96185.81;;;24.37;34.22
22389;BME280;11362;48.102;11.620;2024-02-21T00:06:37;96187.81;;;24.36;34.27
22389;BME280;11362;48.102;11.620;2024-02-21T00:09:02;96183.47;;;24.35;34.23
22389;BME280;11362;48.102;11.620;2024-02-21T00:11:28;96190.19;;;24.34;34.21
22389;BME280;11362;48.102;11.620;2024-02-21T00:13:53;96186.63;;;24.34;34.19
22389;BME280;11362;48.102;11.620;2024-02-21T00:16:19;96182.28;;;24.33;34.26
22389;BME280;11362;48.102;11.620;2024-02-21T00:18:44;96185.03;;;24.33;34.13
22389;BME280;11362;48.102;11.620;2024-02-21T00:21:10;96183.47;;;24.32;34.35
22389;BME280;11362;48.102;11.620;2024-02-21T00:23:35;96184.63;;;24.31;34.21
22389;BME280;11362;48.102;11.620;2024-02-21T00:26:00;96182.66;;;24.31;34.25
22389;BME280;11362;48.102;11.620;2024-02-21T00:28:25;96183.84;;;24.30;34.17
22389;BME280;11362;48.102;11.620;2024-02-21T00:30:51;96168.41;;;24.29;34.16
22389;BME280;11362;48.102;11.620;2024-02-21T00:33:17;96177.13;;;24.28;34.21
22389;BME280;11362;48.102;11.620;2024-02-21T00:35:42;96171.94;;;24.26;34.12
22389;BME280;11362;48.102;11.620;2024-02-21T00:38:07;96162.84;;;24.26;33.90
22389;BME280;11362;48.102;11.620;2024-02-21T00:40:33;96164.81;;;24.25;34.00
22389;BME280;11362;48.102;11.620;2024-02-21T00:42:59;96158.50;;;24.25;33.99
22389;BME280;11362;48.102;11.620;2024-02-21T00:45:24;96152.94;;;24.25;33.75
22389;BME280;11362;48.102;11.620;2024-02-21T00:47:49;96150.56;;;24.23;34.21
22389;BME280;11362;48.102;11.620;2024-02-21T00:50:15;96141.41;;;24.23;33.94
22389;BME280;11362;48.102;11.620;2024-02-21T00:52:40;96145.00;;;24.23;33.88
22389;BME280;11362;48.102;11.620;2024-02-21T00:55:06;96146.56;;;24.24;33.93
22389;BME280;11362;48.102;11.620;2024-02-21T00:57:31;96143.00;;;24.24;33.81
22389;BME280;11362;48.102;11.620;2024-02-21T00:59:57;96138.63;;;24.23;33.71
22389;BME280;11362;48.102;11.620;2024-02-21T01:02:22;96151.75;;;24.22;33.88
22389;BME280;11362;48.102;11.620;2024-02-21T01:04:47;96145.00;;;24.23;33.79
22389;BME280;11362;48.102;11.620;2024-02-21T01:07:12;96144.63;;;24.21;33.84
22389;BME280;11362;48.102;11.620;2024-02-21T01:09:38;96141.84;;;24.21;33.91
22389;BME280;11362;48.102;11.620;2024-02-21T01:12:03;96150.56;;;24.20;33.95
22389;BME280;11362;48.102;11.620;2024-02-21T01:14:29;96136.28;;;24.21;34.02
22389;BME280;11362;48.102;11.620;2024-02-21T01:16:54;96136.28;;;24.21;33.99
22389;BME280;11362;48.102;11.620;2024-02-21T01:19:19;96129.13;;;24.24;33.95
22389;BME280;11362;48.102;11.620;2024-02-21T01:21:45;96130.72;;;24.25;34.02
22389;BME280;11362;48.102;11.620;2024-02-21T01:24:10;96135.47;;;24.21;34.37
22389;BME280;11362;48.102;11.620;2024-02-21T01:26:35;96125.97;;;24.15;33.97
22389;BME280;11362;48.102;11.620;2024-02-21T01:29:01;96123.19;;;24.18;34.02
22389;BME280;11362;48.102;11.620;2024-02-21T01:31:26;96115.28;;;24.13;33.95
22389;BME280;11362;48.102;11.620;2024-02-21T01:33:51;96113.28;;;24.17;33.99
22389;BME280;11362;48.102;11.620;2024-02-21T01:36:16;96110.13;;;24.15;34.08
22389;BME280;11362;48.102;11.620;2024-02-21T01:38:42;96107.34;;;24.15;34.02
22389;BME280;11362;48.102;11.620;2024-02-21T01:41:07;96112.09;;;24.18;33.98
22389;BME280;11362;48.102;11.620;2024-02-21T01:43:32;96111.69;;;24.16;33.99
22389;BME280;11362;48.102;11.620;2024-02-21T01:45:58;96105.75;;;24.18;33.94
22389;BME280;11362;48.102;11.620;2024-02-21T01:48:24;96106.97;;;24.17;34.04
22389;BME280;11362;48.102;11.620;2024-02-21T01:50:50;96102.19;;;24.17;34.06
22389;BME280;11362;48.102;11.620;2024-02-21T01:53:22;96105.34;;;24.16;34.18
22389;BME280;11362;48.102;11.620;2024-02-21T01:55:48;96106.16;;;24.16;33.65
22389;BME280;11362;48.102;11.620;2024-02-21T01:58:17;96093.06;;;24.17;34.15
22389;BME280;11362;48.102;11.620;2024-02-21T02:00:45;96087.09;;;24.18;34.09
22389;BME280;11362;48.102;11.620;2024-02-21T02:03:12;96086.31;;;24.21;34.28
22389;BME280;11362;48.102;11.620;2024-02-21T02:05:38;96084.72;;;24.20;34.17
22389;BME280;11362;48.102;11.620;2024-02-21T02:08:03;96082.34;;;24.19;34.20
22389;BME280;11362;48.102;11.620;2024-02-21T02:10:28;96074.03;;;24.19;34.07
22389;BME280;11362;48.102;11.620;2024-02-21T02:12:54;96072.03;;;24.19;34.05
22389;BME280;11362;48.102;11.620;2024-02-21T02:15:19;96059.38;;;24.11;34.02
22389;BME280;11362;48.102;11.620;2024-02-21T02:17:44;96062.13;;;24.15;34.08
22389;BME280;11362;48.102;11.620;2024-02-21T02:20:10;96061.34;;;24.14;34.02
22389;BME280;11362;48.102;11.620;2024-02-21T02:22:36;96060.16;;;24.12;34.09
22389;BME280;11362;48.102;11.620;2024-02-21T02:25:04;96059.38;;;24.11;34.01
22389;BME280;11362;48.102;11.620;2024-02-21T02:27:29;96064.91;;;24.11;33.94
22389;BME280;11362;48.102;11.620;2024-02-21T02:29:54;96055.00;;;24.10;34.14
22389;BME280;11362;48.102;11.620;2024-02-21T02:32:20;96051.03;;;24.11;33.96
22389;BME280;11362;48.102;11.620;2024-02-21T02:34:45;96044.72;;;24.11;33.92
22389;BME280;11362;48.102;11.620;2024-02-21T02:37:10;96043.91;;;24.10;33.94
22389;BME280;11362;48.102;11.620;2024-02-21T02:39:36;96042.72;;;24.11;34.02
22389;BME280;11362;48.102;11.620;2024-02-21T02:42:01;96035.56;;;24.10;33.97
22389;BME280;11362;48.102;11.620;2024-02-21T02:44:27;96034.78;;;24.13;33.90
22389;BME280;11362;48.102;11.620;2024-02-21T02:46:52;96028.81;;;24.11;33.93
22389;BME280;11362;48.102;11.620;2024-02-21T02:49:17;96026.84;;;24.12;34.01
22389;BME280;11362;48.102;11.620;2024-02-21T02:51:43;96027.25;;;24.10;33.96
22389;BME280;11362;48.102;11.620;2024-02-21T02:54:09;96024.84;;;24.12;33.79
22389;BME280;11362;48.102;11.620;2024-02-21T02:56:34;96016.53;;;24.12;33.88
22389;BME280;11362;48.102;11.620;2024-02-21T02:59:00;96017.34;;;24.13;33.85
22389;BME280;11362;48.102;11.620;2024-02-21T03:01:25;96010.19;;;24.12;33.78
22389;BME280;11362;48.102;11.620;2024-02-21T03:03:50;96012.59;;;24.10;33.92
22389;BME280;11362;48.102;11.620;2024-02-21T03:06:16;96009.81;;;24.10;33.48
22389;BME280;11362;48.102;11.620;2024-02-21T03:08:41;96013.38;;;24.10;33.77
22389;BME280;11362;48.102;11.620;2024-02-21T03:11:06;96014.56;;;24.09;33.79
22389;BME280;11362;48.102;11.620;2024-02-21T03:13:32;96005.44;;;24.09;33.66
22389;BME280;11362;48.102;11.620;2024-02-21T03:15:57;96010.22;;;24.08;33.86
22389;BME280;11362;48.102;11.620;2024-02-21T03:18:22;96001.09;;;24.08;33.88
22389;BME280;11362;48.102;11.620;2024-02-21T03:20:48;96005.03;;;24.10;33.82
22389;BME280;11362;48.102;11.620;2024-02-21T03:23:13;96002.25;;;24.10;33.82
22389;BME280;11362;48.102;11.620;2024-02-21T03:25:38;96005.44;;;24.09;33.76
22389;BME280;11362;48.102;11.620;2024-02-21T03:28:03;96002.66;;;24.09;33.83
22389;BME280;11362;48.102;11.620;2024-02-21T03:30:29;96001.50;;;24.10;33.69
22389;BME280;11362;48.102;11.620;2024-02-21T03:32:54;96006.63;;;24.08;33.85
22389;BME280;11362;48.102;11.620;2024-02-21T03:35:19;96003.09;;;24.07;33.73
22389;BME280;11362;48.102;11.620;2024-02-21T03:37:45;96000.31;;;24.07;33.85
22389;BME280;11362;48.102;11.620;2024-02-21T03:40:10;96011.00;;;24.09;33.84
22389;BME280;11362;48.102;11.620;2024-02-21T03:42:37;96010.22;;;24.08;33.71
22389;BME280;11362;48.102;11.620;2024-02-21T03:45:03;96000.31;;;24.07;33.69
22389;BME280;11362;48.102;11.620;2024-02-21T03:47:28;95997.53;;;24.07;33.71
22389;BME280;11362;48.102;11.620;2024-02-21T03:49:53;96004.28;;;24.06;33.71
22389;BME280;11362;48.102;11.620;2024-02-21T03:52:19;96003.88;;;24.04;33.74
22389;BME280;11362;48.102;11.620;2024-02-21T03:54:44;95997.13;;;24.05;33.79
22389;BME280;11362;48.102;11.620;2024-02-21T03:57:09;95989.59;;;24.06;33.80
22389;BME280;11362;48.102;11.620;2024-02-21T03:59:35;95996.34;;;24.05;33.85
22389;BME280;11362;48.102;11.620;2024-02-21T04:02:00;95990.81;;;24.05;33.72
22389;BME280;11362;48.102;11.620;2024-02-21T04:04:25;95988.41;;;24.03;33.79
22389;BME280;11362;48.102;11.620;2024-02-21T04:06:51;95995.16;;;24.02;33.69
22389;BME280;11362;48.102;11.620;2024-02-21T04:09:17;95986.88;;;23.95;33.69
22389;BME280;11362;48.102;11.620;2024-02-21T04:11:42;95989.63;;;24.02;33.73
22389;BME280;11362;48.102;11.620;2024-02-21T04:14:07;95984.06;;;24.02;33.74
22389;BME280;11362;48.102;11.620;2024-02-21T04:16:33;95985.66;;;24.03;33.78
22389;BME280;11362;48.102;11.620;2024-02-21T04:18:59;95980.09;;;24.03;33.71
22389;BME280;11362;48.102;11.620;2024-02-21T04:21:24;95984.06;;;24.02;33.79
22389;BME280;11362;48.102;11.620;2024-02-21T04:23:49;95982.50;;;24.01;33.87
22389;BME280;11362;48.102;11.620;2024-02-21T04:26:14;95979.31;;;24.03;33.84
22389;BME280;11362;48.102;11.620;2024-02-21T04:28:40;95986.47;;;24.00;33.74
22389;BME280;11362;48.102;11.620;2024-02-21T04:31:05;95972.16;;;24.02;33.91
22389;BME280;11362;48.102;11.620;2024-02-21T04:33:30;95965.47;;;23.96;33.91
22389;BME280;11362;48.102;11.620;2024-02-21T04:35:56;95965.84;;;24.01;33.70
22389;BME280;11362;48.102;11.620;2024-02-21T04:38:21;95975.75;;;24.02;33.79
22389;BME280;11362;48.102;11.620;2024-02-21T04:40:46;95962.25;;;24.01;33.89
22389;BME280;11362;48.102;11.620;2024-02-21T04:43:11;95963.06;;;24.01;33.77
22389;BME280;11362;48.102;11.620;2024-02-21T04:45:37;95959.47;;;24.01;33.86
22389;BME280;11362;48.102;11.620;2024-02-21T04:48:02;95960.69;;;24.00;33.81
22389;BME280;11362;48.102;11.620;2024-02-21T04:50:28;95959.47;;;24.01;33.78
22389;BME280;11362;48.102;11.620;2024-02-21T04:52:53;95938.09;;;23.98;33.83
22389;BME280;11362;48.102;11.620;2024-02-21T04:55:18;95953.16;;;24.00;33.74
22389;BME280;11362;48.102;11.620;2024-02-21T04:57:43;95946.81;;;24.00;33.71
22389;BME280;11362;48.102;11.620;2024-02-21T05:00:09;95942.84;;;24.01;33.88
22389;BME280;11362;48.102;11.620;2024-02-21T05:02:35;95927.00;;;23.98;34.20
22389;BME280;11362;48.102;11.620;2024-02-21T05:05:00;95924.59;;;24.00;33.83
22389;BME280;11362;48.102;11.620;2024-02-21T05:07:25;95916.66;;;23.98;33.73
22389;BME280;11362;48.102;11.620;2024-02-21T05:09:51;95915.09;;;23.97;33.93
22389;BME280;11362;48.102;11.620;2024-02-21T05:12:16;95915.06;;;24.04;34.02
22389;BME280;11362;48.102;11.620;2024-02-21T05:14:41;95908.31;;;24.05;34.06
22389;BME280;11362;48.102;11.620;2024-02-21T05:17:07;95904.75;;;24.05;33.91
22389;BME280;11362;48.102;11.620;2024-02-21T05:19:32;95898.03;;;24.02;33.84
22389;BME280;11362;48.102;11.620;2024-02-21T05:21:59;95894.47;;;23.98;33.74
22389;BME280;11362;48.102;11.620;2024-02-21T05:24:24;95894.09;;;23.96;33.78
22389;BME280;11362;48.102;11.620;2024-02-21T05:26:50;95882.63;;;23.94;33.77
22389;BME280;11362;48.102;11.620;2024-02-21T05:29:15;95882.63;;;23.94;33.73
22389;BME280;11362;48.102;11.620;2024-02-21T05:34:18;95881.03;;;23.93;33.68
22389;BME280;11362;48.102;11.620;2024-02-21T05:36:44;95877.06;;;23.94;33.92
22389;BME280;11362;48.102;11.620;2024-02-21T05:39:10;95875.06;;;23.95;33.80
22389;BME280;11362;48.102;11.620;2024-02-21T05:41:35;95875.88;;;23.95;33.62
22389;BME280;11362;48.102;11.620;2024-02-21T05:44:00;95865.97;;;23.94;33.63
22389;BME280;11362;48.102;11.620;2024-02-21T05:46:26;95866.75;;;23.95;33.55
22389;BME280;11362;48.102;11.620;2024-02-21T05:48:51;95856.47;;;23.88;33.68
22389;BME280;11362;48.102;11.620;2024-02-21T05:51:16;95859.63;;;23.94;33.58
22389;BME280;11362;48.102;11.620;2024-02-21T05:53:41;95846.97;;;23.89;33.59
22389;BME280;11362;48.102;11.620;2024-02-21T05:56:10;95850.09;;;23.95;33.58
22389;BME280;11362;48.102;11.620;2024-02-21T05:58:36;95836.22;;;23.95;33.65
22389;BME280;11362;48.102;11.620;2024-02-21T06:01:01;95837.41;;;23.94;33.50
22389;BME280;11362;48.102;11.620;2024-02-21T06:03:28;95825.91;;;23.95;33.75
22389;BME280;11362;48.102;11.620;2024-02-21T06:05:53;95812.84;;;23.96;33.60
22389;BME280;11362;48.102;11.620;2024-02-21T06:08:18;95811.25;;;23.91;33.80
22389;BME280;11362;48.102;11.620;2024-02-21T06:10:44;95826.34;;;23.90;33.45
22389;BME280;11362;48.102;11.620;2024-02-21T06:13:09;95830.69;;;23.91;33.41
22389;BME280;11362;48.102;11.620;2024-02-21T06:15:34;95805.75;;;23.88;33.47
22389;BME280;11362;48.102;11.620;2024-02-21T06:18:00;95804.56;;;23.92;33.60
22389;BME280;11362;48.102;11.620;2024-02-21T06:20:25;95816.03;;;23.91;33.58
22389;BME280;11362;48.102;11.620;2024-02-21T06:22:50;95812.84;;;23.96;33.95
22389;BME280;11362;48.102;11.620;2024-02-21T06:25:16;95837.41;;;23.97;34.45
22389;BME280;11362;48.102;11.620;2024-02-21T06:27:41;95835.03;;;23.99;34.08
22389;BME280;11362;48.102;11.620;2024-02-21T06:30:07;95833.41;;;24.02;34.38
22389;BME280;11362;48.102;11.620;2024-02-21T06:32:33;95823.47;;;24.04;35.22
22389;BME280;11362;48.102;11.620;2024-02-21T06:34:58;95805.59;;;24.09;35.68
22389;BME280;11362;48.102;11.620;2024-02-21T06:37:23;95808.00;;;24.07;34.91
22389;BME280;11362;48.102;11.620;2024-02-21T06:39:48;95802.44;;;24.10;35.22
22389;BME280;11362;48.102;11.620;2024-02-21T06:42:14;95807.19;;;24.10;34.94
22389;BME280;11362;48.102;11.620;2024-02-21T06:44:39;95796.50;;;24.08;35.09
22389;BME280;11362;48.102;11.620;2024-02-21T06:47:04;95809.97;;;24.10;35.02
22389;BME280;11362;48.102;11.620;2024-02-21T06:49:30;95811.94;;;24.09;34.96
22389;BME280;11362;48.102;11.620;2024-02-21T06:51:55;95817.91;;;24.08;35.00
22389;BME280;11362;48.102;11.620;2024-02-21T06:54:20;95818.69;;;24.08;34.91
22389;BME280;11362;48.102;11.620;2024-02-21T06:56:46;95802.06;;;24.08;34.95
22389;BME280;11362;48.102;11.620;2024-02-21T06:59:11;95810.38;;;24.08;34.77
22389;BME280;11362;48.102;11.620;2024-02-21T07:01:36;95827.44;;;24.07;34.75
22389;BME280;11362;48.102;11.620;2024-02-21T07:04:02;95827.81;;;24.05;35.03
22389;BME280;11362;48.102;11.620;2024-02-21T07:06:27;95827.03;;;24.08;34.97
22389;BME280;11362;48.102;11.620;2024-02-21T07:08:52;95821.47;;;24.08;35.05
22389;BME280;11362;48.102;11.620;2024-02-21T07:11:18;95788.16;;;24.08;34.88
22389;BME280;11362;48.102;11.620;2024-02-21T07:13:43;95786.19;;;24.05;34.50
22389;BME280;11362;48.102;11.620;2024-02-21T07:16:08;95796.16;;;24.03;34.75
22389;BME280;11362;48.102;11.620;2024-02-21T07:18:34;95806.06;;;24.00;34.35
22389;BME280;11362;48.102;11.620;2024-02-21T07:20:59;95842.94;;;24.01;34.70
22389;BME280;11362;48.102;11.620;2024-02-21T07:23:24;95820.72;;;24.01;34.21
22389;BME280;11362;48.102;11.620;2024-02-21T07:25:50;95825.50;;;24.00;34.39
22389;BME280;11362;48.102;11.620;2024-02-21T07:28:16;95825.09;;;23.98;34.34
22389;BME280;11362;48.102;11.620;2024-02-21T07:30:41;95835.78;;;24.00;34.39
22389;BME280;11362;48.102;11.620;2024-02-21T07:33:06;95825.53;;;23.97;34.57
22389;BME280;11362;48.102;11.620;2024-02-21T07:35:31;95796.97;;;23.96;34.57
22389;BME280;11362;48.102;11.620;2024-02-21T07:37:57;95790.66;;;23.96;34.42
22389;BME280;11362;48.102;11.620;2024-02-21T07:40:22;95787.47;;;23.94;34.28
22389;BME280;11362;48.102;11.620;2024-02-21T07:42:48;95785.88;;;23.96;34.31
22389;BME280;11362;48.102;11.620;2024-02-21T07:45:13;95780.72;;;23.95;34.41
22389;BME280;11362;48.102;11.620;2024-02-21T07:47:38;95774.78;;;23.96;34.15
22389;BME280;11362;48.102;11.620;2024-02-21T07:50:04;95771.63;;;23.94;33.85
22389;BME280;11362;48.102;11.620;2024-02-21T07:52:30;95764.13;;;23.88;33.78
22389;BME280;11362;48.102;11.620;2024-02-21T07:54:55;95774.03;;;23.92;33.57
22389;BME280;11362;48.102;11.620;2024-02-21T07:57:20;95758.94;;;23.93;34.06
22389;BME280;11362;48.102;11.620;2024-02-21T07:59:46;95777.94;;;23.95;34.08
22389;BME280;11362;48.102;11.620;2024-02-21T08:02:11;95773.19;;;23.95;33.84
22389;BME280;11362;48.102;11.620;2024-02-21T08:04:37;95745.06;;;23.93;33.77
22389;BME280;11362;48.102;11.620;2024-02-21T08:07:02;95741.09;;;23.94;33.66
22389;BME280;11362;48.102;11.620;2024-02-21T08:09:27;95736.28;;;23.98;33.63
22389;BME280;11362;48.102;11.620;2024-02-21T08:11:54;95716.88;;;23.98;33.62
22389;BME280;11362;48.102;11.620;2024-02-21T08:14:20;95766.81;;;23.98;33.68
22389;BME280;11362;48.102;11.620;2024-02-21T08:16:46;95751.22;;;23.60;28.63
22389;BME280;11362;48.102;11.620;2024-02-21T08:19:11;95726.88;;;23.24;27.35
22389;BME280;11362;48.102;11.620;2024-02-21T08:21:36;95720.00;;;23.49;28.42
22389;BME280;11362;48.102;11.620;2024-02-21T08:24:02;95721.88;;;23.63;29.01
22389;BME280;11362;48.102;11.620;2024-02-21T08:26:27;95720.22;;;23.72;29.69
22389;BME280;11362;48.102;11.620;2024-02-21T08:28:52;95720.97;;;23.76;30.15
22389;BME280;11362;48.102;11.620;2024-02-21T08:31:19;95724.50;;;23.84;30.04
22389;BME280;11362;48.102;11.620;2024-02-21T08:33:44;95718.16;;;23.83;30.29
22389;BME280;11362;48.102;11.620;2024-02-21T08:36:17;95718.16;;;23.87;30.50
22389;BME280;11362;48.102;11.620;2024-02-21T08:38:42;95709.81;;;23.90;30.75
22389;BME280;11362;48.102;11.620;2024-02-21T08:41:07;95714.56;;;23.93;30.90
22389;BME280;11362;48.102;11.620;2024-02-21T08:43:33;95722.84;;;23.97;30.97
22389;BME280;11362;48.102;11.620;2024-02-21T08:45:58;95718.47;;;23.99;31.14
22389;BME280;11362;48.102;11.620;2024-02-21T08:48:23;95721.22;;;24.03;30.93
22389;BME280;11362;48.102;11.620;2024-02-21T08:50:49;95726.75;;;24.06;31.29
22389;BME280;11362;48.102;11.620;2024-02-21T08:53:14;95730.31;;;24.03;31.27
22389;BME280;11362;48.102;11.620;2024-02-21T08:55:39;95728.75;;;24.02;31.32
22389;BME280;11362;48.102;11.620;2024-02-21T08:58:04;95748.56;;;24.01;31.51
22389;BME280;11362;48.102;11.620;2024-02-21T09:00:30;95699.41;;;24.01;31.51
22389;BME280;11362;48.102;11.620;2024-02-21T09:02:55;95703.75;;;24.02;31.52
22389;BME280;11362;48.102;11.620;2024-02-21T09:05:20;95702.19;;;24.01;31.75
22389;BME280;11362;48.102;11.620;2024-02-21T09:07:46;95722.81;;;24.00;31.86
22389;BME280;11362;48.102;11.620;2024-02-21T09:10:11;95720.41;;;24.02;31.76
22389;BME280;11362;48.102;11.620;2024-02-21T09:12:36;95726.75;;;24.06;31.84
22389;BME280;11362;48.102;11.620;2024-02-21T09:15:01;95709.72;;;24.01;32.01
22389;BME280;11362;48.102;11.620;2024-02-21T09:17:27;95727.13;;;24.08;32.01
22389;BME280;11362;48.102;11.620;2024-02-21T09:19:52;95723.13;;;24.09;32.15
22389;BME280;11362;48.102;11.620;2024-02-21T09:22:17;95718.38;;;24.10;32.17
22389;BME280;11362;48.102;11.620;2024-02-21T09:24:43;95719.16;;;24.10;32.28
22389;BME280;11362;48.102;11.620;2024-02-21T09:27:08;95727.09;;;24.12;32.24
22389;BME280;11362;48.102;11.620;2024-02-21T09:29:33;95720.34;;;24.09;32.39
22389;BME280;11362;48.102;11.620;2024-02-21T09:31:59;95720.34;;;24.09;32.36
22389;BME280;11362;48.102;11.620;2024-02-21T09:34:24;95729.03;;;24.15;32.31
22389;BME280;11362;48.102;11.620;2024-02-21T09:36:50;95727.81;;;24.16;32.38
22389;BME280;11362;48.102;11.620;2024-02-21T09:39:15;95728.25;;;24.14;32.49
22389;BME280;11362;48.102;11.620;2024-02-21T09:41:45;95715.13;;;24.18;32.55
22389;BME280;11362;48.102;11.620;2024-02-21T09:44:13;95720.31;;;24.16;32.36
22389;BME280;11362;48.102;11.620;2024-02-21T09:46:45;95713.53;;;24.17;32.56
22389;BME280;11362;48.102;11.620;2024-02-21T09:49:25;95717.13;;;24.18;32.64
22389;BME280;11362;48.102;11.620;2024-02-21T09:51:55;95706.41;;;24.16;32.74
22389;BME280;11362;48.102;11.620;2024-02-21T09:54:21;95698.09;;;24.16;32.82
22389;BME280;11362;48.102;11.620;2024-02-21T09:56:47;95715.88;;;24.22;32.90
22389;BME280;11362;48.102;11.620;2024-02-21T09:59:15;95698.50;;;24.15;32.75
22389;BME280;11362;48.102;11.620;2024-02-21T10:01:42;95703.97;;;24.22;33.03
22389;BME280;11362;48.102;11.620;2024-02-21T10:04:07;95699.22;;;24.22;33.11
22389;BME280;11362;48.102;11.620;2024-02-21T10:06:33;95703.97;;;24.22;33.02
22389;BME280;11362;48.102;11.620;2024-02-21T10:08:58;95704.78;;;24.22;33.15
22389;BME280;11362;48.102;11.620;2024-02-21T10:11:25;95700.44;;;24.21;32.86
22389;BME280;11362;48.102;11.620;2024-02-21T10:13:50;95695.25;;;24.23;33.19
22389;BME280;11362;48.102;11.620;2024-02-21T10:16:15;95701.19;;;24.25;33.11
22389;BME280;11362;48.102;11.620;2024-02-21T10:18:41;95697.63;;;24.25;32.75
22389;BME280;11362;48.102;11.620;2024-02-21T10:21:07;95694.84;;;24.25;32.80
22389;BME280;11362;48.102;11.620;2024-02-21T10:23:42;95690.06;;;24.25;33.30
22389;BME280;11362;48.102;11.620;2024-02-21T10:26:09;95691.63;;;24.26;33.22
22389;BME280;11362;48.102;11.620;2024-02-21T10:28:34;95683.31;;;24.26;33.21
22389;BME280;11362;48.102;11.620;2024-02-21T10:30:59;95682.88;;;24.31;33.13
22389;BME280;11362;48.102;11.620;2024-02-21T10:33:25;95688.78;;;24.33;33.31
22389;BME280;11362;48.102;11.620;2024-02-21T10:35:50;95682.44;;;24.36;32.86
22389;BME280;11362;48.102;11.620;2024-02-21T10:38:15;95670.94;;;24.34;32.71
22389;BME280;11362;48.102;11.620;2024-02-21T10:40:41;95671.38;;;24.33;32.94
22389;BME280;11362;48.102;11.620;2024-02-21T10:43:12;95660.66;;;24.31;33.06
22389;BME280;11362;48.102;11.620;2024-02-21T10:45:38;95644.38;;;24.33;33.05
22389;BME280;11362;48.102;11.620;2024-02-21T10:48:08;95648.28;;;24.39;33.47
22389;BME280;11362;48.102;11.620;2024-02-21T10:50:55;95634.00;;;24.41;33.54
22389;BME280;11362;48.102;11.620;2024-02-21T10:56:21;95618.88;;;24.45;33.18
22389;BME280;11362;48.102;11.620;2024-02-21T10:58:48;95617.28;;;24.44;33.35
22389;BME280;11362;48.102;11.620;2024-02-21T11:01:14;95600.66;;;24.41;33.36
22389;BME280;11362;48.102;11.620;2024-02-21T11:03:39;95599.03;;;24.47;33.26
22389;BME280;11362;48.102;11.620;2024-02-21T11:06:06;95594.22;;;24.47;33.25
22389;BME280;11362;48.102;11.620;2024-02-21T11:08:31;95594.22;;;24.47;33.17
22389;BME280;11362;48.102;11.620;2024-02-21T11:10:58;95587.91;;;24.47;33.35
22389;BME280;11362;48.102;11.620;2024-02-21T11:13:31;95586.28;;;24.49;33.42
22389;BME280;11362;48.102;11.620;2024-02-21T11:16:06;95577.56;;;24.47;33.77
22389;BME280;11362;48.102;11.620;2024-02-21T11:18:32;95574.38;;;24.49;33.56
22389;BME280;11362;48.102;11.620;2024-02-21T11:20:57;95577.47;;;24.54;33.43
22389;BME280;11362;48.102;11.620;2024-02-21T11:23:26;95547.03;;;24.47;33.38
22389;BME280;11362;48.102;11.620;2024-02-21T11:25:51;95551.31;;;24.55;33.30
22389;BME280;11362;48.102;11.620;2024-02-21T11:28:25;95541.00;;;24.56;33.49
22389;BME280;11362;48.102;11.620;2024-02-21T11:30:50;95542.97;;;24.55;33.45
22389;BME280;11362;48.102;11.620;2024-02-21T11:33:16;95534.66;;;24.52;33.20
22389;BME280;11362;48.102;11.620;2024-02-21T11:35:42;95532.25;;;24.57;33.17
22389;BME280;11362;48.102;11.620;2024-02-21T11:38:11;95529.88;;;24.56;33.27
22389;BME280;11362;48.102;11.620;2024-02-21T11:40:40;95524.72;;;24.54;33.38
22389;BME280;11362;48.102;11.620;2024-02-21T11:43:06;95495.78;;;24.52;33.09
22389;BME280;11362;48.102;11.620;2024-02-21T11:45:31;95486.31;;;24.49;33.29
22389;BME280;11362;48.102;11.620;2024-02-21T11:47:56;95488.72;;;24.47;33.08
22389;BME280;11362;48.102;11.620;2024-02-21T11:50:21;95477.25;;;24.45;33.07
22389;BME280;11362;48.102;11.620;2024-02-21T11:52:48;95472.47;;;24.46;32.94
22389;BME280;11362;48.102;11.620;2024-02-21T11:55:13;95458.59;;;24.46;32.85
22389;BME280;11362;48.102;11.620;2024-02-21T11:57:38;95488.34;;;24.45;32.98
22389;BME280;11362;48.102;11.620;2024-02-21T12:00:15;95490.31;;;24.45;32.73
22389;BME280;11362;48.102;11.620;2024-02-21T12:02:41;95492.75;;;24.43;32.60
22389;BME280;11362;48.102;11.620;2024-02-21T12:05:07;95483.16;;;24.47;32.65
22389;BME280;11362;48.102;11.620;2024-02-21T12:07:32;95475.22;;;24.49;32.92
22389;BME280;11362;48.102;11.620;2024-02-21T12:10:01;95461.69;;;24.51;32.94
22389;BME280;11362;48.102;11.620;2024-02-21T12:12:26;95456.13;;;24.51;32.95
22389;BME280;11362;48.102;11.620;2024-02-21T12:14:55;95453.72;;;24.53;32.86
22389;BME280;11362;48.102;11.620;2024-02-21T12:17:21;95453.69;;;24.57;32.77
22389;BME280;11362;48.102;11.620;2024-02-21T12:19:46;95455.25;;;24.58;32.81
22389;BME280;11362;48.102;11.620;2024-02-21T12:22:17;95448.94;;;24.57;32.78
22389;BME280;11362;48.102;11.620;2024-02-21T12:24:43;95438.59;;;24.58;32.88
22389;BME280;11362;48.102;11.620;2024-02-21T12:27:08;95438.19;;;24.59;32.68
22389;BME280;11362;48.102;11.620;2024-02-21T12:29:33;95440.16;;;24.59;32.58
22389;BME280;11362;48.102;11.620;2024-02-21T12:31:59;95431.84;;;24.59;32.51
22389;BME280;11362;48.102;11.620;2024-02-21T12:34:24;95430.63;;;24.60;32.75
22389;BME280;11362;48.102;11.620;2024-02-21T12:36:49;95424.72;;;24.58;32.62
22389;BME280;11362;48.102;11.620;2024-02-21T12:39:15;95417.19;;;24.58;32.55
22389;BME280;11362;48.102;11.620;2024-02-21T12:41:40;95408.03;;;24.58;32.72
22389;BME280;11362;48.102;11.620;2024-02-21T12:44:07;95410.41;;;24.59;32.69
22389;BME280;11362;48.102;11.620;2024-02-21T12:46:33;95399.66;;;24.61;32.85
22389;BME280;11362;48.102;11.620;2024-02-21T12:48:59;95394.16;;;24.58;32.66